Time;durP1;ratioP1;P1;durP2;ratioP2;P2;SDS_P1;SDS_P2;PMS_P1;PMS_P2;Temp;Humidity;BMP_temperature;BMP_pressure;BME280_temperature;BME280_humidity;BME280_pressure;Samples;Min_cycle;Max_cycle;Signal;HPM_P1;HPM_P2
2022/03/28 00:00:51;;;;;;;6.60;4.10;;;;;;;;;;107441;1271;64094;-32
2022/03/28 00:03:18;;;;;;;7.90;3.80;;;;;;;;;;107463;1271;63956;-32
2022/03/28 00:05:48;;;;;;;8.00;4.10;;;;;;;;;;107490;1271;63912;-32
2022/03/28 00:08:18;;;;;;;7.80;4.50;;;;;;;;;;107469;1271;63983;-31
2022/03/28 00:10:46;;;;;;;6.70;4.00;;;;;;;;;;107437;1271;64019;-32
2022/03/28 00:13:16;;;;;;;7.50;4.70;;;;;;;;;;107446;1271;64043;-31
2022/03/28 00:15:43;;;;;;;7.50;4.10;;;;;;;;;;107466;1271;64026;-34
2022/03/28 00:18:10;;;;;;;7.80;4.20;;;;;;;;;;107436;1271;63932;-34
2022/03/28 00:20:38;;;;;;;7.10;4.40;;;;;;;;;;107465;1271;63941;-32
2022/03/28 00:23:06;;;;;;;7.00;3.70;;;;;;;;;;107500;1271;63958;-32
2022/03/28 00:25:35;;;;;;;7.80;4.40;;;;;;;;;;107468;1271;64086;-48
2022/03/28 00:28:03;;;;;;;7.70;3.70;;;;;;;;;;107449;1270;63936;-33
2022/03/28 00:30:34;;;;;;;7.80;3.80;;;;;;;;;;107521;1271;64058;-39
2022/03/28 00:33:01;;;;;;;7.50;4.20;;;;;;;;;;107487;1271;63908;-33
2022/03/28 00:35:35;;;;;;;6.60;4.20;;;;;;;;;;107431;1271;64037;-34
2022/03/28 00:38:05;;;;;;;7.30;3.90;;;;;;;;;;107490;1271;64023;-34
2022/03/28 00:40:35;;;;;;;8.10;4.20;;;;;;;;;;107481;1270;63906;-33
2022/03/28 00:43:05;;;;;;;6.70;3.80;;;;;;;;;;107454;1270;64749;-34
2022/03/28 00:45:38;;;;;;;8.10;3.90;;;;;;;;;;107465;1271;64068;-33
2022/03/28 00:48:06;;;;;;;8.40;4.10;;;;;;;;;;107469;1271;63921;-32
2022/03/28 00:50:34;;;;;;;7.50;3.90;;;;;;;;;;107446;1271;64313;-34
2022/03/28 00:53:05;;;;;;;7.50;4.00;;;;;;;;;;107467;1270;65259;-33
2022/03/28 00:55:33;;;;;;;6.40;3.70;;;;;;;;;;107493;1271;64026;-38
2022/03/28 00:58:03;;;;;;;8.50;4.70;;;;;;;;;;107472;1271;64355;-35
2022/03/28 01:00:31;;;;;;;7.00;3.70;;;;;;;;;;107466;1271;64017;-32
2022/03/28 01:02:59;;;;;;;7.60;3.80;;;;;;;;;;107476;1271;64063;-32
2022/03/28 01:05:31;;;;;;;7.60;4.20;;;;;;;;;;107438;1271;64151;-31
2022/03/28 01:08:00;;;;;;;7.40;3.90;;;;;;;;;;107309;1271;64676;-36
2022/03/28 01:10:29;;;;;;;7.40;4.70;;;;;;;;;;107467;1271;63934;-35
2022/03/28 01:13:00;;;;;;;7.40;4.10;;;;;;;;;;107321;1271;63978;-32
2022/03/28 01:15:27;;;;;;;6.90;3.80;;;;;;;;;;107499;1270;64107;-33
2022/03/28 01:18:06;;;;;;;7.10;3.70;;;;;;;;;;107477;1271;64069;-30
2022/03/28 01:20:37;;;;;;;7.80;3.40;;;;;;;;;;107476;1271;64000;-32
2022/03/28 01:23:09;;;;;;;6.70;3.50;;;;;;;;;;107452;1271;63880;-38
2022/03/28 01:25:36;;;;;;;7.70;4.00;;;;;;;;;;107469;1270;63992;-34
2022/03/28 01:28:04;;;;;;;6.10;3.80;;;;;;;;;;107475;1271;64569;-34
2022/03/28 01:30:34;;;;;;;7.30;3.60;;;;;;;;;;107483;1271;63936;-32
2022/03/28 01:33:01;;;;;;;6.60;3.70;;;;;;;;;;107273;1271;63908;-32
2022/03/28 01:35:32;;;;;;;5.80;3.40;;;;;;;;;;107467;1271;63960;-32
2022/03/28 01:38:01;;;;;;;7.20;4.50;;;;;;;;;;107504;1271;63902;-42
2022/03/28 01:40:33;;;;;;;6.90;3.90;;;;;;;;;;107473;1271;64026;-39
2022/03/28 01:43:01;;;;;;;7.00;3.60;;;;;;;;;;107457;1271;63828;-31
2022/03/28 01:45:34;;;;;;;6.90;3.50;;;;;;;;;;107495;1269;63909;-31
2022/03/28 01:48:01;;;;;;;;;;;;;;;;;;107488;1271;64017;-32
2022/03/28 01:50:32;;;;;;;6.60;3.70;;;;;;;;;;107310;1271;64031;-32
2022/03/28 01:52:59;;;;;;;6.70;3.90;;;;;;;;;;107488;1271;63864;-31
2022/03/28 01:55:26;;;;;;;7.90;4.00;;;;;;;;;;107421;1271;64015;-31
2022/03/28 01:57:53;;;;;;;6.40;3.60;;;;;;;;;;107348;1270;64010;-41
2022/03/28 02:00:25;;;;;;;7.30;4.00;;;;;;;;;;107487;1271;64004;-33
2022/03/28 02:02:53;;;;;;;7.20;3.80;;;;;;;;;;107323;1271;64039;-34
2022/03/28 02:05:20;;;;;;;6.60;3.80;;;;;;;;;;107492;1271;63994;-33
2022/03/28 02:07:51;;;;;;;7.20;3.80;;;;;;;;;;107487;1271;63932;-31
2022/03/28 02:10:22;;;;;;;6.70;3.60;;;;;;;;;;107474;1271;64052;-31
2022/03/28 02:12:49;;;;;;;6.40;3.80;;;;;;;;;;107500;1271;63937;-33
2022/03/28 02:15:20;;;;;;;7.20;3.90;;;;;;;;;;107307;1271;63890;-33
2022/03/28 02:17:50;;;;;;;6.20;3.70;;;;;;;;;;107509;1271;63927;-33
2022/03/28 02:20:20;;;;;;;7.40;3.70;;;;;;;;;;107422;1271;63971;-33
2022/03/28 02:22:50;;;;;;;8.00;3.90;;;;;;;;;;107298;1271;63940;-31
2022/03/28 02:25:18;;;;;;;7.90;3.60;;;;;;;;;;107461;1271;64014;-31
2022/03/28 02:27:46;;;;;;;6.80;3.90;;;;;;;;;;107461;1270;63905;-31
2022/03/28 02:30:14;;;;;;;6.90;3.40;;;;;;;;;;107430;1271;64055;-31
2022/03/28 02:32:42;;;;;;;7.00;4.00;;;;;;;;;;107473;1270;63879;-31
2022/03/28 02:35:12;;;;;;;7.00;3.60;;;;;;;;;;107477;1271;64034;-31
2022/03/28 02:37:39;;;;;;;6.10;3.50;;;;;;;;;;107282;1274;64108;-33
2022/03/28 02:40:11;;;;;;;5.90;3.40;;;;;;;;;;107438;1270;64136;-33
2022/03/28 02:42:38;;;;;;;6.40;3.40;;;;;;;;;;107506;1271;63915;-33
2022/03/28 02:45:09;;;;;;;7.70;3.80;;;;;;;;;;107432;1271;63886;-33
2022/03/28 02:47:39;;;;;;;7.10;3.50;;;;;;;;;;107500;1270;64180;-33
2022/03/28 02:50:10;;;;;;;7.00;3.60;;;;;;;;;;107319;1271;64005;-34
2022/03/28 02:52:37;;;;;;;6.80;3.30;;;;;;;;;;107487;1270;63864;-34
2022/03/28 02:55:04;;;;;;;6.30;3.40;;;;;;;;;;107467;1271;63934;-37
2022/03/28 02:57:31;;;;;;;6.70;3.70;;;;;;;;;;107494;1271;64049;-31
2022/03/28 02:59:58;;;;;;;7.10;3.50;;;;;;;;;;107450;1271;64038;-36
2022/03/28 03:02:25;;;;;;;7.00;3.70;;;;;;;;;;107427;1271;63978;-31
2022/03/28 03:04:52;;;;;;;7.40;3.40;;;;;;;;;;107433;1271;64053;-31
2022/03/28 03:07:22;;;;;;;6.80;3.80;;;;;;;;;;107478;1271;64023;-31
2022/03/28 03:09:49;;;;;;;6.90;3.80;;;;;;;;;;107433;1271;63996;-31
2022/03/28 03:12:19;;;;;;;6.80;3.50;;;;;;;;;;107464;1271;63939;-31
2022/03/28 03:14:46;;;;;;;6.00;3.20;;;;;;;;;;107303;1271;64030;-31
2022/03/28 03:17:16;;;;;;;6.20;3.80;;;;;;;;;;107450;1271;64026;-34
2022/03/28 03:19:46;;;;;;;6.30;3.30;;;;;;;;;;107456;1271;63961;-35
2022/03/28 03:22:16;;;;;;;6.80;3.70;;;;;;;;;;107440;1271;64041;-32
2022/03/28 03:24:46;;;;;;;7.40;3.40;;;;;;;;;;107312;1271;63997;-31
2022/03/28 03:27:16;;;;;;;6.80;3.20;;;;;;;;;;107486;1271;63880;-31
2022/03/28 03:29:43;;;;;;;6.70;3.50;;;;;;;;;;107431;1271;64091;-29
2022/03/28 03:32:10;;;;;;;7.00;3.70;;;;;;;;;;107291;1271;64033;-30
2022/03/28 03:34:37;;;;;;;6.90;3.30;;;;;;;;;;107427;1271;64069;-30
2022/03/28 03:37:07;;;;;;;6.80;3.50;;;;;;;;;;107458;1271;64627;-33
2022/03/28 03:39:38;;;;;;;6.20;3.90;;;;;;;;;;107432;1271;64099;-32
2022/03/28 03:42:06;;;;;;;6.80;3.50;;;;;;;;;;107271;1271;64662;-31
2022/03/28 03:44:36;;;;;;;7.30;3.50;;;;;;;;;;107430;1271;63954;-39
2022/03/28 03:47:03;;;;;;;6.60;3.30;;;;;;;;;;107429;1271;63980;-33
2022/03/28 03:49:30;;;;;;;6.30;3.40;;;;;;;;;;107326;1271;64063;-34
2022/03/28 03:51:57;;;;;;;7.10;3.70;;;;;;;;;;107461;1271;63937;-32
2022/03/28 03:54:24;;;;;;;6.40;3.60;;;;;;;;;;107459;1271;64043;-31
2022/03/28 03:56:51;;;;;;;6.50;3.20;;;;;;;;;;107444;1271;65141;-34
2022/03/28 03:59:19;;;;;;;6.50;3.40;;;;;;;;;;107278;1271;64043;-34
2022/03/28 04:01:46;;;;;;;8.00;3.90;;;;;;;;;;107345;1271;64046;-33
2022/03/28 04:04:13;;;;;;;6.50;3.30;;;;;;;;;;107292;1271;63938;-33
2022/03/28 04:06:43;;;;;;;6.50;3.40;;;;;;;;;;107487;1271;64019;-33
2022/03/28 04:09:14;;;;;;;7.50;4.20;;;;;;;;;;107434;1271;64049;-34
2022/03/28 04:11:42;;;;;;;8.10;4.20;;;;;;;;;;107425;1271;64041;-31
2022/03/28 04:14:10;;;;;;;6.70;4.00;;;;;;;;;;107545;1271;63927;-43
2022/03/28 04:16:37;;;;;;;7.10;3.50;;;;;;;;;;107498;1271;63925;-31
2022/03/28 04:19:07;;;;;;;6.80;3.70;;;;;;;;;;107457;1271;63924;-31
2022/03/28 04:21:34;;;;;;;7.40;3.50;;;;;;;;;;107327;1271;63950;-33
2022/03/28 04:24:04;;;;;;;7.20;3.60;;;;;;;;;;107450;1271;63941;-33
2022/03/28 04:26:35;;;;;;;6.70;3.60;;;;;;;;;;105219;1271;3135284;-30
2022/03/28 04:29:04;;;;;;;6.50;3.30;;;;;;;;;;107469;1271;63887;-31
2022/03/28 04:31:37;;;;;;;7.90;4.00;;;;;;;;;;107467;1271;63914;-31
2022/03/28 04:34:07;;;;;;;7.90;3.90;;;;;;;;;;107474;1271;63938;-31
2022/03/28 04:36:34;;;;;;;6.50;3.60;;;;;;;;;;107480;1271;63986;-35
2022/03/28 04:39:01;;;;;;;6.30;3.50;;;;;;;;;;107490;1271;64061;-34
2022/03/28 04:41:28;;;;;;;8.00;3.80;;;;;;;;;;107454;1271;64004;-33
2022/03/28 04:43:55;;;;;;;7.10;3.80;;;;;;;;;;107485;1271;64004;-34
2022/03/28 04:46:22;;;;;;;6.60;3.40;;;;;;;;;;107462;1271;64058;-33
2022/03/28 04:48:49;;;;;;;6.90;3.80;;;;;;;;;;107457;1271;63796;-33
2022/03/28 04:51:16;;;;;;;6.20;3.80;;;;;;;;;;107489;1271;63268;-31
2022/03/28 04:53:47;;;;;;;6.70;3.70;;;;;;;;;;107440;1271;63923;-31
2022/03/28 04:56:13;;;;;;;6.90;3.60;;;;;;;;;;107283;1271;63935;-34
2022/03/28 04:58:43;;;;;;;7.30;3.70;;;;;;;;;;107457;1270;64027;-36
2022/03/28 05:01:10;;;;;;;6.60;3.70;;;;;;;;;;107460;1271;63914;-32
2022/03/28 05:03:40;;;;;;;6.00;3.70;;;;;;;;;;107465;1271;64072;-32
2022/03/28 05:06:08;;;;;;;7.10;3.70;;;;;;;;;;107331;1271;64074;-36
2022/03/28 05:08:36;;;;;;;8.20;3.80;;;;;;;;;;107493;1271;64053;-34
2022/03/28 05:11:03;;;;;;;6.90;3.70;;;;;;;;;;107471;1271;64040;-30
2022/03/28 05:13:33;;;;;;;7.90;3.60;;;;;;;;;;107435;1271;64079;-31
2022/03/28 05:16:00;;;;;;;6.20;3.30;;;;;;;;;;107505;1271;64152;-34
2022/03/28 05:18:27;;;;;;;8.10;3.70;;;;;;;;;;107326;1271;64039;-34
2022/03/28 05:20:54;;;;;;;7.00;3.70;;;;;;;;;;107287;1271;64139;-34
2022/03/28 05:23:21;;;;;;;8.50;3.60;;;;;;;;;;107442;1271;63954;-34
2022/03/28 05:25:48;;;;;;;8.30;3.90;;;;;;;;;;107478;1271;63963;-37
2022/03/28 05:28:15;;;;;;;7.30;3.80;;;;;;;;;;107359;1271;63896;-33
2022/03/28 05:30:43;;;;;;;6.20;3.70;;;;;;;;;;107480;1271;63965;-33
2022/03/28 05:33:12;;;;;;;8.30;4.00;;;;;;;;;;107434;1271;63893;-33
2022/03/28 05:35:42;;;;;;;6.10;3.60;;;;;;;;;;107445;1271;64016;-31
2022/03/28 05:38:12;;;;;;;8.00;3.70;;;;;;;;;;107437;1271;64030;-31
2022/03/28 05:40:40;;;;;;;6.50;3.70;;;;;;;;;;107343;1272;64065;-33
2022/03/28 05:43:07;;;;;;;6.90;3.70;;;;;;;;;;107487;1271;65107;-35
2022/03/28 05:45:36;;;;;;;6.40;3.20;;;;;;;;;;107469;1271;64019;-35
2022/03/28 05:48:04;;;;;;;6.90;4.10;;;;;;;;;;107460;1271;63938;-36
2022/03/28 05:50:35;;;;;;;7.30;3.30;;;;;;;;;;107508;1271;63936;-32
2022/03/28 05:53:02;;;;;;;5.80;3.40;;;;;;;;;;107511;1271;64017;-32
2022/03/28 05:55:29;;;;;;;7.00;3.80;;;;;;;;;;107468;1271;63912;-33
2022/03/28 05:57:57;;;;;;;6.90;3.80;;;;;;;;;;107463;1271;63948;-31
2022/03/28 06:00:26;;;;;;;7.40;4.30;;;;;;;;;;107447;1271;63905;-31
2022/03/28 06:02:54;;;;;;;6.60;3.70;;;;;;;;;;107469;1271;63896;-34
2022/03/28 06:05:22;;;;;;;6.60;3.90;;;;;;;;;;107507;1271;63908;-40
2022/03/28 06:07:49;;;;;;;7.20;4.20;;;;;;;;;;107483;1271;64091;-34
2022/03/28 06:10:18;;;;;;;7.20;4.00;;;;;;;;;;107467;1271;64033;-35
2022/03/28 06:12:45;;;;;;;7.80;4.90;;;;;;;;;;107405;1271;63908;-31
2022/03/28 06:15:13;;;;;;;11.80;5.70;;;;;;;;;;107416;1270;64023;-30
2022/03/28 06:17:40;;;;;;;8.40;5.00;;;;;;;;;;107437;1271;63909;-30
2022/03/28 06:20:07;;;;;;;8.40;5.20;;;;;;;;;;107455;1271;64029;-32
2022/03/28 06:22:35;;;;;;;9.30;5.70;;;;;;;;;;107311;1271;63927;-29
2022/03/28 06:25:03;;;;;;;10.30;5.50;;;;;;;;;;107287;1271;63908;-30
2022/03/28 06:27:30;;;;;;;9.50;5.90;;;;;;;;;;107292;1272;64104;-30
2022/03/28 06:29:58;;;;;;;9.90;6.30;;;;;;;;;;107352;1271;64016;-29
2022/03/28 06:32:25;;;;;;;9.90;6.10;;;;;;;;;;107449;1271;64046;-29
2022/03/28 06:34:52;;;;;;;10.50;5.70;;;;;;;;;;107411;1271;63944;-41
2022/03/28 06:37:23;;;;;;;10.00;5.60;;;;;;;;;;107438;1271;64030;-29
2022/03/28 06:39:50;;;;;;;8.40;5.60;;;;;;;;;;107251;1274;64028;-28
2022/03/28 06:42:17;;;;;;;10.60;6.10;;;;;;;;;;107446;1271;63889;-31
2022/03/28 06:44:44;;;;;;;8.80;6.20;;;;;;;;;;107441;1271;64048;-31
2022/03/28 06:47:12;;;;;;;9.70;6.50;;;;;;;;;;107269;1272;64110;-31
2022/03/28 06:49:39;;;;;;;10.70;6.30;;;;;;;;;;107290;1271;64031;-31
2022/03/28 06:52:07;;;;;;;10.90;6.20;;;;;;;;;;107258;1272;63899;-32
2022/03/28 06:54:35;;;;;;;10.40;5.50;;;;;;;;;;107445;1271;64020;-31
2022/03/28 06:57:03;;;;;;;9.60;6.50;;;;;;;;;;107420;1271;63945;-33
2022/03/28 06:59:30;;;;;;;10.40;5.50;;;;;;;;;;107433;1271;64059;-31
2022/03/28 07:01:57;;;;;;;7.90;4.80;;;;;;;;;;107440;1271;64223;-28
2022/03/28 07:04:25;;;;;;;8.50;5.10;;;;;;;;;;107416;1271;63939;-29
2022/03/28 07:06:52;;;;;;;9.60;4.50;;;;;;;;;;107448;1271;64028;-34
2022/03/28 07:09:19;;;;;;;7.90;4.60;;;;;;;;;;107435;1271;63990;-31
2022/03/28 07:11:46;;;;;;;7.80;4.70;;;;;;;;;;107312;1272;63972;-28
2022/03/28 07:14:16;;;;;;;8.10;4.30;;;;;;;;;;107417;1271;63970;-29
2022/03/28 07:16:43;;;;;;;8.00;4.20;;;;;;;;;;107270;1271;64068;-39
2022/03/28 07:19:13;;;;;;;6.50;4.20;;;;;;;;;;107306;1271;64173;-30
2022/03/28 07:21:40;;;;;;;8.10;4.20;;;;;;;;;;107474;1271;63986;-29
2022/03/28 07:24:07;;;;;;;8.80;4.80;;;;;;;;;;107432;1271;64025;-28
2022/03/28 07:26:34;;;;;;;7.00;4.40;;;;;;;;;;107307;1271;64434;-33
2022/03/28 07:29:02;;;;;;;9.50;5.00;;;;;;;;;;107434;1271;63923;-31
2022/03/28 07:31:30;;;;;;;8.30;4.00;;;;;;;;;;107470;1271;64062;-32
2022/03/28 07:34:29;;;;;;;7.20;4.30;;;;;;;;;;107454;1271;63927;-31
2022/03/28 07:36:45;;;;;;;7.70;4.30;;;;;;;;;;107448;1271;64030;-31
2022/03/28 07:39:12;;;;;;;8.70;3.90;;;;;;;;;;107433;1271;64133;-31
2022/03/28 07:41:39;;;;;;;8.70;4.10;;;;;;;;;;107417;1271;63927;-43
2022/03/28 07:44:07;;;;;;;6.60;3.80;;;;;;;;;;107449;1271;65178;-32
2022/03/28 07:46:34;;;;;;;6.20;3.60;;;;;;;;;;107461;1271;63916;-29
2022/03/28 07:49:01;;;;;;;6.60;3.80;;;;;;;;;;107434;1271;64715;-31
2022/03/28 07:51:28;;;;;;;7.00;4.60;;;;;;;;;;107409;1271;63952;-29
2022/03/28 07:53:56;;;;;;;6.40;3.80;;;;;;;;;;107164;1271;63841;-28
2022/03/28 07:56:23;;;;;;;6.90;4.20;;;;;;;;;;107381;1271;63934;-29
2022/03/28 07:58:50;;;;;;;6.70;4.10;;;;;;;;;;107423;1271;63947;-28
2022/03/28 08:01:17;;;;;;;7.80;4.00;;;;;;;;;;107253;1271;64069;-29
2022/03/28 08:03:44;;;;;;;6.40;4.10;;;;;;;;;;107417;1271;63948;-31
2022/03/28 08:06:11;;;;;;;6.40;3.90;;;;;;;;;;107256;1274;61629;-30
2022/03/28 08:08:39;;;;;;;7.30;4.00;;;;;;;;;;107245;1271;63940;-30
2022/03/28 08:11:07;;;;;;;7.60;3.80;;;;;;;;;;107409;1271;63919;-28
2022/03/28 08:13:35;;;;;;;8.80;3.60;;;;;;;;;;107152;1271;64172;-29
2022/03/28 08:16:04;;;;;;;7.10;3.60;;;;;;;;;;107297;1271;63921;-28
2022/03/28 08:18:32;;;;;;;6.90;4.00;;;;;;;;;;107283;1271;64093;-30
2022/03/28 08:20:59;;;;;;;7.00;3.90;;;;;;;;;;107298;1271;64040;-28
2022/03/28 08:23:27;;;;;;;6.80;3.60;;;;;;;;;;107280;1271;63992;-32
2022/03/28 08:25:54;;;;;;;7.70;3.90;;;;;;;;;;107203;1271;64036;-30
2022/03/28 08:28:23;;;;;;;6.80;3.60;;;;;;;;;;107220;1271;64642;-29
2022/03/28 08:30:50;;;;;;;7.30;3.30;;;;;;;;;;107206;1271;62825;-31
2022/03/28 08:33:17;;;;;;;7.40;4.20;;;;;;;;;;107301;1271;63947;-30
2022/03/28 08:35:44;;;;;;;7.30;3.50;;;;;;;;;;107328;1271;64087;-32
2022/03/28 08:38:11;;;;;;;6.80;3.50;;;;;;;;;;107366;1271;64046;-30
2022/03/28 08:40:42;;;;;;;7.60;3.50;;;;;;;;;;107372;1271;64027;-31
2022/03/28 08:43:09;;;;;;;7.50;3.50;;;;;;;;;;107308;1271;63916;-30
2022/03/28 08:45:41;;;;;;;7.80;3.20;;;;;;;;;;107290;1271;63934;-30
2022/03/28 08:48:12;;;;;;;7.00;3.30;;;;;;;;;;107292;1271;64033;-31
2022/03/28 08:50:43;;;;;;;6.20;3.10;;;;;;;;;;107374;1271;63189;-29
2022/03/28 08:53:12;;;;;;;7.80;3.70;;;;;;;;;;107237;1271;63893;-31
2022/03/28 08:55:43;;;;;;;7.40;3.10;;;;;;;;;;107397;1271;63931;-32
2022/03/28 08:58:11;;;;;;;8.20;3.30;;;;;;;;;;107338;1271;63947;-31
2022/03/28 09:00:38;;;;;;;6.50;3.20;;;;;;;;;;107341;1271;63926;-35
2022/03/28 09:03:05;;;;;;;7.40;3.60;;;;;;;;;;107392;1271;64016;-31
2022/03/28 09:05:38;;;;;;;7.00;3.00;;;;;;;;;;107303;1271;63950;-31
2022/03/28 09:08:07;;;;;;;6.30;2.90;;;;;;;;;;107393;1271;63945;-30
2022/03/28 09:10:36;;;;;;;7.60;2.80;;;;;;;;;;107201;1271;63962;-29
2022/03/28 09:13:11;;;;;;;6.00;2.90;;;;;;;;;;107333;1271;64023;-31
2022/03/28 09:15:45;;;;;;;7.50;3.30;;;;;;;;;;107255;1274;63957;-40
2022/03/28 09:18:24;;;;;;;5.40;2.70;;;;;;;;;;107445;1271;64820;-30
2022/03/28 09:20:53;;;;;;;7.50;3.40;;;;;;;;;;107369;1271;64001;-31
2022/03/28 09:23:29;;;;;;;7.40;3.00;;;;;;;;;;107318;1271;64033;-31
2022/03/28 09:25:57;;;;;;;6.40;3.00;;;;;;;;;;107394;1271;63924;-30
2022/03/28 09:28:48;;;;;;;6.20;2.70;;;;;;;;;;107342;1271;64029;-34
2022/03/28 09:31:25;;;;;;;6.10;2.90;;;;;;;;;;107270;1271;64049;-31
2022/03/28 09:34:01;;;;;;;5.90;2.80;;;;;;;;;;107232;1274;64143;-31
2022/03/28 09:36:45;;;;;;;7.30;3.00;;;;;;;;;;107400;1271;63914;-31
2022/03/28 09:39:16;;;;;;;5.70;2.60;;;;;;;;;;107317;1271;63891;-30
2022/03/28 09:41:45;;;;;;;6.30;3.00;;;;;;;;;;107406;1271;62743;-32
2022/03/28 09:44:12;;;;;;;5.60;2.50;;;;;;;;;;107361;1270;63912;-32
2022/03/28 09:46:40;;;;;;;6.10;3.00;;;;;;;;;;107274;1271;64012;-32
2022/03/28 09:49:08;;;;;;;5.80;2.90;;;;;;;;;;107446;1271;64042;-37
2022/03/28 09:51:36;;;;;;;6.70;2.70;;;;;;;;;;107316;1271;63964;-34
2022/03/28 09:54:18;;;;;;;6.90;3.30;;;;;;;;;;107375;1271;64058;-32
2022/03/28 09:57:05;;;;;;;5.20;2.50;;;;;;;;;;107406;1271;64009;-28
2022/03/28 09:59:40;;;;;;;5.70;2.60;;;;;;;;;;107310;1271;63990;-28
2022/03/28 10:02:23;;;;;;;6.00;2.60;;;;;;;;;;107228;1272;61349;-31
2022/03/28 10:04:54;;;;;;;5.90;2.80;;;;;;;;;;107299;1274;64223;-32
2022/03/28 10:07:21;;;;;;;7.40;3.00;;;;;;;;;;107283;1271;63911;-33
2022/03/28 10:09:50;;;;;;;5.80;2.40;;;;;;;;;;107412;1271;64069;-30
2022/03/28 10:12:19;;;;;;;6.30;2.70;;;;;;;;;;107356;1271;64395;-29
2022/03/28 10:14:54;;;;;;;5.20;2.50;;;;;;;;;;107229;1271;64014;-32
2022/03/28 10:17:24;;;;;;;5.10;2.70;;;;;;;;;;107158;1273;63900;-32
2022/03/28 10:19:51;;;;;;;5.70;2.50;;;;;;;;;;107291;1271;65124;-30
2022/03/28 10:22:33;;;;;;;4.90;2.60;;;;;;;;;;107360;1271;64138;-31
2022/03/28 10:25:05;;;;;;;5.60;2.40;;;;;;;;;;107413;1271;63930;-30
2022/03/28 10:27:33;;;;;;;4.40;2.20;;;;;;;;;;107251;1274;64017;-29
2022/03/28 10:30:30;;;;;;;6.00;2.80;;;;;;;;;;107378;1271;64124;-29
2022/03/28 10:33:21;;;;;;;5.50;2.50;;;;;;;;;;107173;1274;63937;-30
2022/03/28 10:36:00;;;;;;;6.40;3.00;;;;;;;;;;107306;1271;64046;-29
2022/03/28 10:38:28;;;;;;;5.60;2.80;;;;;;;;;;107371;1271;63939;-28
2022/03/28 10:41:05;;;;;;;8.20;2.80;;;;;;;;;;107320;1271;64034;-32
2022/03/28 10:43:34;;;;;;;6.90;3.40;;;;;;;;;;107323;1271;64400;-32
2022/03/28 10:46:09;;;;;;;5.50;2.70;;;;;;;;;;107434;1271;64058;-31
2022/03/28 10:48:46;;;;;;;5.50;2.50;;;;;;;;;;107377;1271;63931;-32
2022/03/28 10:51:19;;;;;;;6.30;2.70;;;;;;;;;;107326;1271;63921;-31
2022/03/28 10:53:51;;;;;;;5.00;2.60;;;;;;;;;;107433;1271;64028;-31
2022/03/28 10:56:23;;;;;;;6.30;3.00;;;;;;;;;;107366;1271;63282;-30
2022/03/28 10:58:57;;;;;;;6.30;2.70;;;;;;;;;;107308;1271;63899;-30
2022/03/28 11:01:35;;;;;;;5.90;3.00;;;;;;;;;;107426;1271;63992;-30
2022/03/28 11:04:04;;;;;;;8.20;3.10;;;;;;;;;;107346;1271;63951;-30
2022/03/28 11:07:00;;;;;;;5.30;2.40;;;;;;;;;;107277;1274;63941;-29
2022/03/28 11:09:47;;;;;;;6.20;2.50;;;;;;;;;;107426;1271;64053;-30
2022/03/28 11:12:29;;;;;;;5.90;2.80;;;;;;;;;;107263;1271;63931;-30
2022/03/28 11:15:01;;;;;;;6.10;2.30;;;;;;;;;;107280;1272;64080;-31
2022/03/28 11:17:50;;;;;;;7.10;2.30;;;;;;;;;;107306;1271;64039;-31
2022/03/28 11:20:22;;;;;;;6.20;2.60;;;;;;;;;;107407;1271;64037;-30
2022/03/28 11:23:10;;;;;;;6.40;2.30;;;;;;;;;;107409;1271;64635;-27
2022/03/28 11:25:43;;;;;;;7.00;2.40;;;;;;;;;;107307;1271;64055;-31
2022/03/28 11:28:16;;;;;;;5.10;2.30;;;;;;;;;;107370;1271;63901;-32
2022/03/28 11:30:43;;;;;;;4.90;1.90;;;;;;;;;;107365;1271;64501;-29
2022/03/28 11:33:13;;;;;;;4.30;2.00;;;;;;;;;;107297;1271;63957;-31
2022/03/28 11:35:50;;;;;;;4.60;2.10;;;;;;;;;;107410;1271;64027;-30
2022/03/28 11:38:26;;;;;;;4.50;2.00;;;;;;;;;;107253;1271;64015;-30
2022/03/28 11:40:54;;;;;;;6.00;2.10;;;;;;;;;;107467;1271;63947;-33
2022/03/28 11:43:36;;;;;;;6.40;2.30;;;;;;;;;;107304;1271;64034;-33
2022/03/28 11:46:10;;;;;;;4.50;1.90;;;;;;;;;;107345;1271;64048;-30
2022/03/28 11:48:53;;;;;;;5.30;2.10;;;;;;;;;;107382;1271;64035;-30
2022/03/28 11:51:22;;;;;;;5.40;1.80;;;;;;;;;;107316;1271;62745;-28
2022/03/28 11:53:49;;;;;;;4.50;1.60;;;;;;;;;;107390;1271;63934;-28
2022/03/28 11:56:29;;;;;;;4.50;1.60;;;;;;;;;;107213;1272;64039;-29
2022/03/28 11:59:15;;;;;;;4.80;1.90;;;;;;;;;;107281;1271;63989;-32
2022/03/28 12:01:43;;;;;;;4.40;1.50;;;;;;;;;;107302;1271;64002;-29
2022/03/28 12:04:11;;;;;;;5.20;1.60;;;;;;;;;;107359;1271;63891;-31
2022/03/28 12:06:39;;;;;;;4.20;1.60;;;;;;;;;;107346;1271;63956;-30
2022/03/28 12:09:07;;;;;;;4.40;1.80;;;;;;;;;;107248;1271;63948;-33
2022/03/28 12:11:36;;;;;;;4.30;1.50;;;;;;;;;;107294;1271;61377;-32
2022/03/28 12:14:04;;;;;;;4.30;1.20;;;;;;;;;;107284;1272;64123;-29
2022/03/28 12:16:31;;;;;;;4.20;1.30;;;;;;;;;;107372;1271;63995;-28
2022/03/28 12:19:01;;;;;;;4.70;1.70;;;;;;;;;;107288;1271;64187;-27
2022/03/28 12:21:28;;;;;;;4.10;1.60;;;;;;;;;;107197;1272;64072;-31
2022/03/28 12:23:55;;;;;;;4.10;1.40;;;;;;;;;;107229;1272;64007;-31
2022/03/28 12:26:22;;;;;;;4.60;1.60;;;;;;;;;;107000;1271;333829;-29
2022/03/28 12:28:51;;;;;;;4.50;1.40;;;;;;;;;;107286;1271;63935;-28
2022/03/28 12:31:19;;;;;;;4.10;1.30;;;;;;;;;;107246;1271;64043;-29
2022/03/28 12:33:47;;;;;;;5.00;1.70;;;;;;;;;;107276;1271;64014;-30
2022/03/28 12:36:22;;;;;;;4.00;1.40;;;;;;;;;;107324;1271;63947;-31
2022/03/28 12:38:57;;;;;;;4.80;1.30;;;;;;;;;;107351;1272;64190;-32
2022/03/28 12:41:26;;;;;;;4.50;1.40;;;;;;;;;;107145;1274;64038;-32
2022/03/28 12:43:55;;;;;;;4.70;1.40;;;;;;;;;;107313;1271;64012;-32
2022/03/28 12:46:23;;;;;;;4.00;1.30;;;;;;;;;;107392;1271;64129;-31
2022/03/28 12:48:54;;;;;;;3.90;1.40;;;;;;;;;;107319;1271;63941;-31
2022/03/28 12:51:25;;;;;;;5.30;1.60;;;;;;;;;;107385;1271;63921;-40
2022/03/28 12:54:21;;;;;;;4.20;1.30;;;;;;;;;;107301;1271;63919;-31
2022/03/28 12:56:56;;;;;;;4.90;1.60;;;;;;;;;;107296;1272;63947;-32
2022/03/28 12:59:34;;;;;;;4.20;1.50;;;;;;;;;;107270;1274;64004;-33
2022/03/28 13:02:16;;;;;;;4.20;1.40;;;;;;;;;;107376;1271;63991;-29
2022/03/28 13:04:43;;;;;;;4.10;1.50;;;;;;;;;;107327;1271;64411;-29
2022/03/28 13:07:23;;;;;;;5.60;1.50;;;;;;;;;;107394;1271;63925;-29
2022/03/28 13:09:58;;;;;;;5.00;1.40;;;;;;;;;;107272;1271;63960;-28
2022/03/28 13:12:42;;;;;;;4.50;1.50;;;;;;;;;;107354;1271;64066;-31
2022/03/28 13:15:19;;;;;;;3.70;1.40;;;;;;;;;;107415;1272;63950;-30
2022/03/28 13:17:48;;;;;;;4.30;1.30;;;;;;;;;;107323;1271;64171;-31
2022/03/28 13:20:25;;;;;;;4.30;1.30;;;;;;;;;;107374;1271;64145;-33
2022/03/28 13:22:54;;;;;;;4.30;1.40;;;;;;;;;;107323;1271;63932;-32
2022/03/28 13:25:22;;;;;;;4.10;1.40;;;;;;;;;;107380;1271;64140;-34
2022/03/28 13:28:01;;;;;;;3.20;1.40;;;;;;;;;;107335;1271;63934;-32
2022/03/28 13:30:35;;;;;;;4.60;1.40;;;;;;;;;;107331;1271;64042;-29
2022/03/28 13:33:04;;;;;;;4.80;1.70;;;;;;;;;;107352;1271;64004;-26
2022/03/28 13:35:33;;;;;;;6.20;1.50;;;;;;;;;;107280;1273;63928;-27
2022/03/28 13:38:08;;;;;;;3.90;1.60;;;;;;;;;;107328;1271;64626;-31
2022/03/28 13:40:37;;;;;;;4.40;1.70;;;;;;;;;;107402;1271;62629;-31
2022/03/28 13:43:04;;;;;;;5.30;1.40;;;;;;;;;;107330;1271;63881;-30
2022/03/28 13:45:32;;;;;;;6.10;1.50;;;;;;;;;;107388;1271;63905;-39
2022/03/28 13:48:03;;;;;;;3.50;1.20;;;;;;;;;;107208;1271;64036;-31
2022/03/28 13:50:31;;;;;;;4.20;1.50;;;;;;;;;;107387;1271;64071;-32
2022/03/28 13:52:59;;;;;;;5.40;1.60;;;;;;;;;;107406;1271;64060;-32
2022/03/28 13:55:26;;;;;;;4.50;1.40;;;;;;;;;;107276;1271;64151;-31
2022/03/28 13:57:54;;;;;;;4.50;1.30;;;;;;;;;;107414;1271;64865;-30
2022/03/28 14:00:21;;;;;;;3.60;1.40;;;;;;;;;;107351;1271;64887;-29
2022/03/28 14:02:49;;;;;;;4.20;1.30;;;;;;;;;;107310;1271;64836;-30
2022/03/28 14:05:17;;;;;;;3.90;1.50;;;;;;;;;;107398;1271;64901;-34
2022/03/28 14:07:45;;;;;;;4.40;1.40;;;;;;;;;;107393;1271;64869;-35
2022/03/28 14:10:13;;;;;;;4.40;1.50;;;;;;;;;;107201;1271;64783;-32
2022/03/28 14:12:41;;;;;;;3.80;1.60;;;;;;;;;;107299;1271;64851;-31
2022/03/28 14:15:09;;;;;;;3.10;1.20;;;;;;;;;;107373;1271;64797;-31
2022/03/28 14:17:41;;;;;;;4.10;1.40;;;;;;;;;;107342;1271;64853;-32
2022/03/28 14:20:11;;;;;;;5.10;1.40;;;;;;;;;;107413;1271;64728;-32
2022/03/28 14:22:38;;;;;;;4.50;1.60;;;;;;;;;;107265;1271;64708;-31
2022/03/28 14:25:07;;;;;;;4.90;1.70;;;;;;;;;;107378;1271;64757;-31
2022/03/28 14:27:35;;;;;;;4.00;1.30;;;;;;;;;;107306;1271;64971;-28
2022/03/28 14:30:02;;;;;;;5.60;2.30;;;;;;;;;;107370;1271;64949;-30
2022/03/28 14:32:29;;;;;;;5.10;1.40;;;;;;;;;;107293;1271;64775;-33
2022/03/28 14:34:59;;;;;;;4.30;1.20;;;;;;;;;;107159;1274;64866;-33
2022/03/28 14:37:26;;;;;;;3.60;1.50;;;;;;;;;;107234;1271;64805;-31
2022/03/28 14:39:53;;;;;;;3.90;1.30;;;;;;;;;;107301;1271;64783;-31
2022/03/28 14:42:21;;;;;;;3.60;1.30;;;;;;;;;;107342;1271;64754;-33
2022/03/28 14:44:48;;;;;;;4.10;1.50;;;;;;;;;;107352;1271;64883;-32
2022/03/28 14:47:15;;;;;;;3.20;1.20;;;;;;;;;;107291;1271;64874;-31